createdAt,value
2022-11-05T00:17:45.018Z,9.30
2022-11-05T00:17:57.060Z,9.40
2022-11-05T00:18:09.209Z,9.30
2022-11-05T00:18:21.345Z,9.40
2022-11-05T00:18:33.466Z,9.40
2022-11-05T00:19:11.150Z,9.40
2022-11-05T00:19:23.208Z,9.40
2022-11-05T00:19:36.339Z,9.40
2022-11-05T00:19:48.440Z,9.40
2022-11-05T00:20:51.783Z,9.40
2022-11-05T00:21:03.976Z,9.40
2022-11-05T00:21:34.650Z,9.40
2022-11-05T00:22:04.746Z,9.40
2022-11-05T00:22:35.117Z,9.40
2022-11-05T00:23:05.633Z,9.30
2022-11-05T00:23:36.218Z,9.30
2022-11-05T00:24:06.842Z,9.30
2022-11-05T00:24:37.620Z,9.30
2022-11-05T00:25:08.022Z,9.30
2022-11-05T00:25:20.035Z,9.30
2022-11-05T00:25:31.827Z,9.30
2022-11-05T00:25:43.654Z,9.30
2022-11-05T00:26:03.085Z,9.30
2022-11-05T00:26:15.147Z,9.30
2022-11-05T00:26:27.247Z,9.30
2022-11-05T00:26:39.043Z,9.30
2022-11-05T00:26:50.832Z,9.30
2022-11-05T00:27:02.724Z,9.30
2022-11-05T00:27:14.812Z,9.30
2022-11-05T00:27:26.705Z,9.30
2022-11-05T00:27:38.490Z,9.30
2022-11-05T00:27:54.139Z,9.30
2022-11-05T00:28:05.910Z,9.30
2022-11-05T00:28:17.748Z,9.30
2022-11-05T00:28:30.126Z,9.30
2022-11-05T00:28:43.914Z,9.40
2022-11-05T00:28:55.803Z,9.40
2022-11-05T00:29:07.826Z,9.30
2022-11-05T00:29:19.887Z,9.30
2022-11-05T00:29:31.951Z,9.30
2022-11-05T00:29:43.683Z,9.30
2022-11-05T00:29:55.881Z,9.40
2022-11-05T00:30:09.249Z,9.40
2022-11-05T00:30:28.517Z,9.30
2022-11-05T00:30:40.373Z,9.40
2022-11-05T00:30:52.430Z,9.40
2022-11-05T00:31:06.027Z,9.40
2022-11-05T00:31:18.249Z,9.40
2022-11-05T00:31:29.853Z,9.40
2022-11-05T00:31:41.526Z,9.40
2022-11-05T00:31:53.355Z,9.40
2022-11-05T00:32:05.070Z,9.40
2022-11-05T00:32:16.743Z,9.40
2022-11-05T00:32:28.446Z,9.40
2022-11-05T00:32:40.508Z,9.40
2022-11-05T00:32:52.836Z,9.40
2022-11-05T00:33:04.596Z,9.40
2022-11-05T00:33:17.094Z,9.40
2022-11-05T00:33:28.765Z,9.40
2022-11-05T00:33:41.635Z,9.40
2022-11-05T00:33:53.351Z,9.40
2022-11-05T00:34:05.058Z,9.40
2022-11-05T00:34:16.710Z,9.40
2022-11-05T00:34:28.393Z,9.40
2022-11-05T00:34:40.076Z,9.40
2022-11-05T00:34:51.743Z,9.40
2022-11-05T00:35:04.140Z,9.40
2022-11-05T00:35:17.158Z,9.40
2022-11-05T00:35:28.877Z,9.40
2022-11-05T00:35:40.631Z,9.40
2022-11-05T00:35:52.337Z,9.50
2022-11-05T00:36:04.906Z,9.40
2022-11-05T00:36:16.716Z,9.40
2022-11-05T00:36:28.427Z,9.50
2022-11-05T00:36:40.118Z,9.50
2022-11-05T00:36:51.789Z,9.50
2022-11-05T00:37:03.565Z,9.50
2022-11-05T00:37:15.268Z,9.50
2022-11-05T00:37:28.308Z,9.50
2022-11-05T00:37:41.601Z,9.50
2022-11-05T00:37:56.119Z,9.50
2022-11-05T00:38:07.784Z,9.50
2022-11-05T00:38:19.515Z,9.50
2022-11-05T00:38:31.244Z,9.50
2022-11-05T00:38:42.867Z,9.50
2022-11-05T00:38:54.582Z,9.50
2022-11-05T00:39:06.288Z,9.50
2022-11-05T00:39:18.014Z,9.50
2022-11-05T00:39:29.739Z,9.50
2022-11-05T00:39:41.493Z,9.50
2022-11-05T00:39:53.273Z,9.50
2022-11-05T00:40:05.580Z,9.50
2022-11-05T00:40:17.585Z,9.50
2022-11-05T00:40:29.457Z,9.50
2022-11-05T00:40:41.223Z,9.50
2022-11-05T00:40:52.950Z,9.50
2022-11-05T00:41:04.910Z,9.50
2022-11-05T00:41:16.722Z,9.50
2022-11-05T00:41:28.468Z,9.50
2022-11-05T00:41:40.233Z,9.40
2022-11-05T00:42:11.895Z,9.50
2022-11-05T00:42:42.234Z,9.50
2022-11-05T00:43:13.102Z,9.50
2022-11-05T00:43:43.660Z,9.40
2022-11-05T00:44:13.734Z,9.50
2022-11-05T00:44:44.259Z,9.50
2022-11-05T00:45:02.104Z,9.50
2022-11-05T00:45:13.981Z,9.50
2022-11-05T00:45:25.739Z,9.40
2022-11-05T00:45:37.964Z,9.40
2022-11-05T00:45:49.637Z,9.50
2022-11-05T00:46:01.349Z,9.50
2022-11-05T00:46:13.114Z,9.50
2022-11-05T00:46:24.796Z,9.50
2022-11-05T00:46:36.519Z,9.50
2022-11-05T00:46:48.192Z,9.50
2022-11-05T00:47:19.849Z,9.50
2022-11-05T00:47:50.737Z,9.50
2022-11-05T00:48:21.238Z,9.50
2022-11-05T00:48:51.481Z,9.50
2022-11-05T00:49:21.903Z,9.50
2022-11-05T00:49:33.566Z,9.50
2022-11-05T00:49:45.342Z,9.50
2022-11-05T00:49:57.101Z,9.50
2022-11-05T00:50:10.799Z,9.50
2022-11-05T00:50:22.729Z,9.50
2022-11-05T00:50:34.588Z,9.50
2022-11-05T00:50:46.319Z,9.50
2022-11-05T00:50:58.003Z,9.50
2022-11-05T00:51:09.729Z,9.50
2022-11-05T00:51:21.495Z,9.50
2022-11-05T00:51:33.244Z,9.50
2022-11-05T00:51:44.942Z,9.60
2022-11-05T00:52:15.410Z,9.50
2022-11-05T00:53:02.417Z,9.60
2022-11-05T00:53:14.402Z,9.50
2022-11-05T00:53:26.226Z,9.50
2022-11-05T00:53:37.922Z,9.50
2022-11-05T00:53:49.653Z,9.50
2022-11-05T00:54:01.419Z,9.50
2022-11-05T00:54:13.199Z,9.50
2022-11-05T00:54:25.050Z,9.50
2022-11-05T00:54:36.731Z,9.50
2022-11-05T00:54:48.415Z,9.50
2022-11-05T00:55:00.198Z,9.50
2022-11-05T00:55:11.998Z,9.50
2022-11-05T00:55:24.567Z,9.50
2022-11-05T00:55:40.512Z,9.50
2022-11-05T00:55:52.341Z,9.60
2022-11-05T00:56:04.422Z,9.60
2022-11-05T00:56:16.136Z,9.60
2022-11-05T00:56:27.900Z,9.60
2022-11-05T00:56:39.689Z,9.60
2022-11-05T00:56:51.412Z,9.50
2022-11-05T00:57:04.792Z,9.50
2022-11-05T00:57:16.709Z,9.60
2022-11-05T00:57:28.482Z,9.50
2022-11-05T00:57:40.221Z,9.50
2022-11-05T00:57:52.004Z,9.50
2022-11-05T00:58:11.616Z,9.50
2022-11-05T00:58:23.348Z,9.60
2022-11-05T00:58:35.261Z,9.60
2022-11-05T00:58:46.970Z,9.60
2022-11-05T00:58:58.763Z,9.60
2022-11-05T00:59:10.480Z,9.60
2022-11-05T00:59:22.204Z,9.60
2022-11-05T00:59:33.901Z,9.60
2022-11-05T00:59:45.761Z,9.60
2022-11-05T00:59:57.491Z,9.50
2022-11-05T01:00:09.878Z,9.60
2022-11-05T01:00:22.230Z,9.60
2022-11-05T01:00:34.791Z,9.50
2022-11-05T01:00:53.757Z,9.50
2022-11-05T01:01:05.644Z,9.60
2022-11-05T01:01:17.968Z,9.60
2022-11-05T01:01:29.917Z,9.60
2022-11-05T01:01:41.793Z,9.60
2022-11-05T01:01:53.649Z,9.60
2022-11-05T01:02:05.519Z,9.50
2022-11-05T01:02:17.420Z,9.50
2022-11-05T01:02:29.349Z,9.50
2022-11-05T01:02:41.312Z,9.50
2022-11-05T01:02:53.218Z,9.50
2022-11-05T01:03:07.272Z,9.50
2022-11-05T01:03:20.628Z,9.50
2022-11-05T01:03:34.406Z,9.50
2022-11-05T01:03:51.299Z,9.50
2022-11-05T01:04:03.567Z,9.50
2022-11-05T01:04:15.259Z,9.50
2022-11-05T01:04:26.924Z,9.50
2022-11-05T01:04:38.570Z,9.50
2022-11-05T01:04:50.250Z,9.50
2022-11-05T01:05:01.990Z,9.50
2022-11-05T01:05:13.750Z,9.50
2022-11-05T01:05:25.504Z,9.50
2022-11-05T01:05:50.532Z,9.50
2022-11-05T01:06:12.727Z,9.50
2022-11-05T01:06:24.475Z,9.50
2022-11-05T01:06:36.301Z,9.50
2022-11-05T01:06:48.001Z,9.50
2022-11-05T01:06:59.712Z,9.50
2022-11-05T01:07:11.386Z,9.50
2022-11-05T01:07:23.100Z,9.50
2022-11-05T01:07:34.808Z,9.50
2022-11-05T01:07:46.579Z,9.50
2022-11-05T01:07:58.500Z,9.50
2022-11-05T01:08:10.877Z,9.50
2022-11-05T01:08:23.708Z,9.50
2022-11-05T01:08:35.483Z,9.50
2022-11-05T01:08:47.403Z,9.50
2022-11-05T01:08:59.174Z,9.50
2022-11-05T01:09:10.890Z,9.50
2022-11-05T01:09:22.663Z,9.50
2022-11-05T01:09:34.376Z,9.50
2022-11-05T01:09:46.157Z,9.50
2022-11-05T01:09:57.906Z,9.50
2022-11-05T01:10:09.769Z,9.50
2022-11-05T01:10:21.731Z,9.50
2022-11-05T01:10:33.431Z,9.50
2022-11-05T01:10:46.801Z,9.50
2022-11-05T01:10:58.707Z,9.50
2022-11-05T01:11:12.320Z,9.50
2022-11-05T01:11:33.274Z,9.50
2022-11-05T01:11:46.124Z,9.50
2022-11-05T01:11:57.886Z,9.50
2022-11-05T01:12:09.589Z,9.40
2022-11-05T01:12:21.294Z,9.50
2022-11-05T01:12:33.028Z,9.50
2022-11-05T01:12:44.698Z,9.40
2022-11-05T01:12:56.555Z,9.50
2022-11-05T01:13:12.687Z,9.50
2022-11-05T01:13:29.193Z,9.50
2022-11-05T01:13:40.949Z,9.50
2022-11-05T01:13:52.643Z,9.50
2022-11-05T01:14:12.292Z,9.50
2022-11-05T01:14:24.238Z,9.40
2022-11-05T01:14:35.965Z,9.50
2022-11-05T01:14:47.699Z,9.50
2022-11-05T01:15:00.452Z,9.50
2022-11-05T01:15:12.171Z,9.50
2022-11-05T01:15:23.962Z,9.50
2022-11-05T01:15:38.302Z,9.50
2022-11-05T01:15:50.941Z,9.50
2022-11-05T01:16:07.696Z,9.50
2022-11-05T01:16:19.421Z,9.40
2022-11-05T01:16:31.605Z,9.40
2022-11-05T01:16:43.522Z,9.40
2022-11-05T01:16:55.278Z,9.40
2022-11-05T01:17:07.052Z,9.40
2022-11-05T01:17:18.812Z,9.40
2022-11-05T01:17:30.580Z,9.40
2022-11-05T01:17:42.372Z,9.40
2022-11-05T01:17:54.076Z,9.40
2022-11-05T01:18:05.876Z,9.40
2022-11-05T01:18:18.485Z,9.40
2022-11-05T01:18:30.209Z,9.40
2022-11-05T01:18:41.955Z,9.40
2022-11-05T01:18:53.665Z,9.40
2022-11-05T01:19:06.673Z,9.40
2022-11-05T01:19:18.830Z,9.40
2022-11-05T01:19:30.720Z,9.40
2022-11-05T01:19:42.508Z,9.40
2022-11-05T01:19:54.254Z,9.40
2022-11-05T01:20:06.182Z,9.40
2022-11-05T01:20:18.107Z,9.40
2022-11-05T01:20:29.971Z,9.40
2022-11-05T01:20:41.743Z,9.40
2022-11-05T01:20:53.509Z,9.40
2022-11-05T01:21:14.677Z,9.40
2022-11-05T01:21:26.459Z,9.40
2022-11-05T01:21:38.197Z,9.40
2022-11-05T01:21:49.946Z,9.40
2022-11-05T01:22:01.692Z,9.40
2022-11-05T01:22:13.388Z,9.40
2022-11-05T01:22:25.110Z,9.40
2022-11-05T01:22:37.001Z,9.40
2022-11-05T01:22:48.772Z,9.40
2022-11-05T01:23:00.631Z,9.40
2022-11-05T01:23:13.921Z,9.40
2022-11-05T01:23:25.786Z,9.40
2022-11-05T01:23:37.531Z,9.30
2022-11-05T01:23:49.308Z,9.40
2022-11-05T01:24:01.348Z,9.30
2022-11-05T01:24:13.021Z,9.40
2022-11-05T01:24:24.890Z,9.30
2022-11-05T01:24:36.654Z,9.30
2022-11-05T01:24:48.388Z,9.30
2022-11-05T01:25:00.208Z,9.30
2022-11-05T01:25:12.065Z,9.30
2022-11-05T01:25:23.926Z,9.30
2022-11-05T01:25:35.680Z,9.30
2022-11-05T01:25:47.475Z,9.30
2022-11-05T01:25:59.229Z,9.30
2022-11-05T01:26:10.991Z,9.30
2022-11-05T01:26:22.807Z,9.30
2022-11-05T01:26:34.533Z,9.30
2022-11-05T01:26:46.218Z,9.30
2022-11-05T01:26:57.985Z,9.30
2022-11-05T01:27:09.688Z,9.20
2022-11-05T01:27:21.889Z,9.20
2022-11-05T01:27:33.619Z,9.20
2022-11-05T01:27:45.373Z,9.20
2022-11-05T01:27:57.089Z,9.20
2022-11-05T01:28:09.779Z,9.20
2022-11-05T01:28:21.567Z,9.20
2022-11-05T01:28:33.498Z,9.20
2022-11-05T01:28:45.376Z,9.20
2022-11-05T01:29:00.384Z,9.20
2022-11-05T01:29:12.357Z,9.20
2022-11-05T01:29:24.049Z,9.20
2022-11-05T01:29:35.804Z,9.20
2022-11-05T01:29:47.480Z,9.20
2022-11-05T01:29:59.205Z,9.20
2022-11-05T01:30:11.640Z,9.20
2022-11-05T01:30:23.480Z,9.20
2022-11-05T01:30:35.606Z,9.20
2022-11-05T01:30:53.447Z,9.20
2022-11-05T01:31:05.265Z,9.20
2022-11-05T01:31:16.983Z,9.20
2022-11-05T01:31:29.217Z,9.20
2022-11-05T01:31:40.949Z,9.20
2022-11-05T01:31:52.668Z,9.20
2022-11-05T01:32:04.698Z,9.20
2022-11-05T01:32:16.384Z,9.30
2022-11-05T01:32:28.130Z,9.30
2022-11-05T01:32:39.853Z,9.30
2022-11-05T01:32:51.595Z,9.30
2022-11-05T01:33:03.591Z,9.30
2022-11-05T01:33:15.410Z,9.30
2022-11-05T01:33:27.253Z,9.30
2022-11-05T01:33:38.992Z,9.30
2022-11-05T01:33:50.751Z,9.30
2022-11-05T01:34:02.482Z,9.30
2022-11-05T01:34:15.344Z,9.30
2022-11-05T01:34:27.187Z,9.30
2022-11-05T01:34:38.971Z,9.30
2022-11-05T01:34:50.666Z,9.30
2022-11-05T01:35:03.907Z,9.30
2022-11-05T01:35:16.476Z,9.30
2022-11-05T01:35:28.236Z,9.40
2022-11-05T01:35:39.991Z,9.30
2022-11-05T01:35:51.837Z,9.40
2022-11-05T01:36:04.969Z,9.30
2022-11-05T01:36:17.142Z,9.40
2022-11-05T01:36:28.900Z,9.40
2022-11-05T01:36:40.672Z,9.40
2022-11-05T01:36:52.385Z,9.40
2022-11-05T01:37:04.298Z,9.40
2022-11-05T01:37:16.048Z,9.40
2022-11-05T01:37:27.820Z,9.40
2022-11-05T01:37:39.842Z,9.40
2022-11-05T01:37:51.606Z,9.40
2022-11-05T01:38:03.300Z,9.40
2022-11-05T01:38:15.020Z,9.50
2022-11-05T01:38:26.674Z,9.50
2022-11-05T01:38:38.428Z,9.50
2022-11-05T01:38:50.203Z,9.50
2022-11-05T01:39:02.014Z,9.50
2022-11-05T01:39:13.773Z,9.50
2022-11-05T01:39:25.517Z,9.50
2022-11-05T01:39:37.231Z,9.50
2022-11-05T01:39:48.959Z,9.50
2022-11-05T01:40:00.748Z,9.50
2022-11-05T01:40:17.532Z,9.50
2022-11-05T01:40:29.346Z,9.50
2022-11-05T01:40:42.547Z,9.50
2022-11-05T01:40:54.288Z,9.40
2022-11-05T01:41:06.157Z,9.40
2022-11-05T01:41:17.871Z,9.50
2022-11-05T01:41:29.597Z,9.50
2022-11-05T01:41:41.287Z,9.50
2022-11-05T01:41:52.952Z,9.50
2022-11-05T01:42:10.921Z,9.50
2022-11-05T01:42:24.877Z,9.50
2022-11-05T01:42:36.607Z,9.50
2022-11-05T01:42:48.773Z,9.50
2022-11-05T01:43:00.565Z,9.50
2022-11-05T01:43:19.975Z,9.50
2022-11-05T01:43:57.307Z,9.50
2022-11-05T01:44:49.790Z,9.50
2022-11-05T01:45:12.435Z,9.60
2022-11-05T01:45:25.816Z,9.60
2022-11-05T01:45:37.491Z,9.60
2022-11-05T01:45:56.678Z,9.60
2022-11-05T01:46:08.386Z,9.60
2022-11-05T01:46:23.545Z,9.50
2022-11-05T01:46:38.576Z,9.50
2022-11-05T01:46:50.251Z,9.50
2022-11-05T01:47:01.973Z,9.50
2022-11-05T01:47:24.160Z,9.60
2022-11-05T01:48:05.868Z,9.50
2022-11-05T01:48:26.819Z,9.50
2022-11-05T01:48:38.508Z,9.60
2022-11-05T01:48:50.357Z,9.60
2022-11-05T01:49:18.626Z,9.60
2022-11-05T01:49:32.132Z,9.60
2022-11-05T01:49:43.963Z,9.60
2022-11-05T01:49:55.931Z,9.60
2022-11-05T01:50:30.716Z,9.60
2022-11-05T01:50:49.357Z,9.60
2022-11-05T01:51:13.576Z,9.60
2022-11-05T01:51:25.968Z,9.60
2022-11-05T01:51:37.641Z,9.60
2022-11-05T01:51:49.578Z,9.60
2022-11-05T01:52:02.186Z,9.50
2022-11-05T01:52:13.938Z,9.60
2022-11-05T01:52:25.635Z,9.60
2022-11-05T01:52:37.338Z,9.60
2022-11-05T01:52:49.796Z,9.60
2022-11-05T01:53:22.398Z,9.60
2022-11-05T01:53:45.588Z,9.60
2022-11-05T01:54:05.269Z,9.60
2022-11-05T01:54:18.050Z,9.50
2022-11-05T01:54:29.891Z,9.50
2022-11-05T01:54:41.617Z,9.60
2022-11-05T01:54:53.470Z,9.50
2022-11-05T01:55:05.548Z,9.60
2022-11-05T01:55:18.737Z,9.60
2022-11-05T01:55:31.859Z,9.60
2022-11-05T01:55:47.402Z,9.50
2022-11-05T01:56:05.654Z,9.50
2022-11-05T01:56:21.223Z,9.60
2022-11-05T01:56:42.548Z,9.50
2022-11-05T01:56:56.397Z,9.50
2022-11-05T01:57:08.621Z,9.50
2022-11-05T01:57:20.340Z,9.50
2022-11-05T01:57:32.115Z,9.50
2022-11-05T01:57:43.884Z,9.50
2022-11-05T01:57:55.814Z,9.50
2022-11-05T01:58:07.781Z,9.50
2022-11-05T01:58:21.389Z,9.50
2022-11-05T01:58:36.011Z,9.50
2022-11-05T01:58:59.354Z,9.50
2022-11-05T01:59:16.562Z,9.50
2022-11-05T01:59:33.938Z,9.50
2022-11-05T01:59:50.505Z,9.50
2022-11-05T02:00:02.331Z,9.60
2022-11-05T02:00:15.881Z,9.60
2022-11-05T02:00:28.035Z,9.60
2022-11-05T02:00:40.572Z,9.60
2022-11-05T02:00:52.335Z,9.60
2022-11-05T02:01:04.067Z,9.60
2022-11-05T02:01:15.909Z,9.60
2022-11-05T02:01:27.737Z,9.60
2022-11-05T02:01:39.628Z,9.60
2022-11-05T02:01:51.515Z,9.60
2022-11-05T02:02:03.451Z,9.60
2022-11-05T02:02:15.430Z,9.60
2022-11-05T02:02:27.396Z,9.60
2022-11-05T02:02:39.266Z,9.60
2022-11-05T02:02:51.226Z,9.60
2022-11-05T02:03:03.140Z,9.60
2022-11-05T02:03:15.361Z,9.60
2022-11-05T02:03:27.131Z,9.60
2022-11-05T02:03:38.975Z,9.60
2022-11-05T02:03:52.056Z,9.60
2022-11-05T02:04:06.011Z,9.60
2022-11-05T02:04:27.774Z,9.60
2022-11-05T02:04:42.630Z,9.60
2022-11-05T02:04:55.991Z,9.60
2022-11-05T02:05:08.250Z,9.60
2022-11-05T02:05:20.008Z,9.60
2022-11-05T02:05:31.710Z,9.60
2022-11-05T02:05:43.510Z,9.60
2022-11-05T02:05:56.290Z,9.60
2022-11-05T02:06:09.496Z,9.60
2022-11-05T02:06:21.281Z,9.60
2022-11-05T02:06:33.903Z,9.60
2022-11-05T02:06:48.578Z,9.60
2022-11-05T02:07:00.432Z,9.60
2022-11-05T02:07:12.179Z,9.60
2022-11-05T02:07:23.962Z,9.60
2022-11-05T02:07:35.728Z,9.60
2022-11-05T02:07:47.588Z,9.60
2022-11-05T02:07:59.256Z,9.60
2022-11-05T02:08:45.636Z,9.60
2022-11-05T02:09:07.595Z,9.50
2022-11-05T02:09:30.311Z,9.60
2022-11-05T02:09:49.065Z,9.60
2022-11-05T02:10:11.426Z,9.60
2022-11-05T02:10:23.099Z,9.60
2022-11-05T02:10:34.863Z,9.60
2022-11-05T02:10:46.616Z,9.60
2022-11-05T02:10:58.371Z,9.60
2022-11-05T02:11:12.552Z,9.60
2022-11-05T02:11:24.629Z,9.60
2022-11-05T02:11:36.419Z,9.60
2022-11-05T02:11:48.795Z,9.50
2022-11-05T02:12:00.574Z,9.60
2022-11-05T02:12:12.241Z,9.50
2022-11-05T02:12:24.009Z,9.60
2022-11-05T02:12:37.579Z,9.60
2022-11-05T02:12:49.374Z,9.60
2022-11-05T02:13:01.205Z,9.60
2022-11-05T02:13:13.201Z,9.60
2022-11-05T02:13:25.028Z,9.60
2022-11-05T02:13:36.724Z,9.50
2022-11-05T02:13:50.979Z,9.60
2022-11-05T02:14:02.758Z,9.60
2022-11-05T02:14:14.529Z,9.50
2022-11-05T02:14:26.342Z,9.50
2022-11-05T02:14:38.015Z,9.60
2022-11-05T02:14:49.763Z,9.60
2022-11-05T02:15:01.532Z,9.50
2022-11-05T02:15:16.911Z,9.60
2022-11-05T02:16:02.992Z,9.50
2022-11-05T02:17:02.377Z,9.50
2022-11-05T02:17:19.403Z,9.60
2022-11-05T02:17:53.060Z,9.50
2022-11-05T02:18:22.838Z,9.50
2022-11-05T02:18:37.586Z,9.50
2022-11-05T02:19:10.718Z,9.50
2022-11-05T02:19:40.910Z,9.50
2022-11-05T02:20:30.213Z,9.50
2022-11-05T02:20:52.774Z,9.50
2022-11-05T02:21:10.718Z,9.50
2022-11-05T02:22:08.564Z,9.50
2022-11-05T02:22:29.119Z,9.50
2022-11-05T02:22:54.567Z,9.50
2022-11-05T02:23:38.091Z,9.50
2022-11-05T02:24:11.633Z,9.50
2022-11-05T02:24:51.123Z,9.50
2022-11-05T02:25:03.647Z,9.50
2022-11-05T02:25:25.690Z,9.50
2022-11-05T02:25:55.728Z,9.50
2022-11-05T02:26:20.016Z,9.50
2022-11-05T02:26:57.611Z,9.50
2022-11-05T03:04:44.931Z,9.80
2022-11-05T03:04:57.017Z,9.80
2022-11-05T03:05:08.800Z,9.80
2022-11-05T03:05:21.723Z,9.80
2022-11-05T03:05:40.782Z,9.80
2022-11-05T03:06:07.580Z,9.80
2022-11-05T03:06:22.261Z,9.80
2022-11-05T03:07:04.327Z,9.80
2022-11-05T03:07:22.458Z,9.80
2022-11-05T03:07:55.561Z,9.80
2022-11-05T03:08:11.742Z,9.80
2022-11-05T03:08:43.430Z,9.80
2022-11-05T03:09:00.903Z,9.80
2022-11-05T03:09:48.889Z,9.80
2022-11-05T03:10:24.598Z,9.80
2022-11-05T03:10:45.659Z,9.80
2022-11-05T03:11:00.208Z,9.80
2022-11-05T03:11:16.823Z,9.80
2022-11-05T03:11:29.838Z,9.80
2022-11-05T03:11:51.518Z,9.80
2022-11-05T03:12:27.483Z,9.80
2022-11-05T03:12:53.066Z,9.80
2022-11-05T03:13:14.209Z,9.80
2022-11-05T03:13:32.947Z,9.80
2022-11-05T03:13:54.212Z,9.80
2022-11-05T03:14:33.529Z,9.80
2022-11-05T03:15:18.122Z,9.80
2022-11-05T03:15:58.661Z,9.80
2022-11-05T03:16:13.976Z,9.80
2022-11-05T03:16:31.743Z,9.80
2022-11-05T03:16:47.262Z,9.70
2022-11-05T03:17:12.767Z,9.70
2022-11-05T03:17:45.874Z,9.70
2022-11-05T03:18:06.461Z,9.70
2022-11-05T03:18:21.290Z,9.70
2022-11-05T03:18:40.205Z,9.70
2022-11-05T03:19:16.951Z,9.70
2022-11-05T03:19:43.385Z,9.70
2022-11-05T03:20:15.565Z,9.70
2022-11-05T03:20:39.733Z,9.80
2022-11-05T03:20:57.058Z,9.80
2022-11-05T03:21:15.927Z,9.80
2022-11-05T03:21:42.550Z,9.80
2022-11-05T03:21:57.720Z,9.80
2022-11-05T03:22:13.916Z,9.80
2022-11-05T03:22:28.389Z,9.70
2022-11-05T03:22:47.331Z,9.70
2022-11-05T03:23:11.291Z,9.70
2022-11-05T03:23:29.441Z,9.70
2022-11-05T03:23:53.004Z,9.70
2022-11-05T03:24:10.500Z,9.70
2022-11-05T03:24:24.283Z,9.80
2022-11-05T03:24:38.206Z,9.80
2022-11-05T03:24:52.660Z,9.80
2022-11-05T03:25:11.238Z,9.80
2022-11-05T03:25:23.743Z,9.80
2022-11-05T03:25:38.969Z,9.80
2022-11-05T03:25:54.027Z,9.80
2022-11-05T03:26:31.965Z,9.80
2022-11-05T03:26:59.192Z,9.80
2022-11-05T03:27:15.422Z,9.80
2022-11-05T03:27:29.462Z,9.80
2022-11-05T03:27:43.146Z,9.80
2022-11-05T03:27:57.567Z,9.80
2022-11-05T03:28:09.307Z,9.80
2022-11-05T03:28:23.014Z,9.80
2022-11-05T03:28:36.146Z,9.80
2022-11-05T03:28:50.882Z,9.80
2022-11-05T03:29:08.457Z,9.80
2022-11-05T03:29:23.661Z,9.80
2022-11-05T03:29:43.236Z,9.80
2022-11-05T03:30:03.308Z,9.80
2022-11-05T03:30:15.833Z,9.80
2022-11-05T03:30:27.587Z,9.80
2022-11-05T03:30:39.482Z,9.80
2022-11-05T03:30:51.803Z,9.80
2022-11-05T03:31:03.707Z,9.80
2022-11-05T03:31:15.467Z,9.80
2022-11-05T03:31:27.270Z,9.80
2022-11-05T03:31:39.355Z,9.80
2022-11-05T03:31:52.228Z,9.80
2022-11-05T03:32:04.224Z,9.80
2022-11-05T03:32:16.220Z,9.80
2022-11-05T03:32:28.473Z,9.80
2022-11-05T03:32:43.045Z,9.80
2022-11-05T03:32:59.645Z,9.80
2022-11-05T03:33:15.036Z,9.80
2022-11-05T03:33:28.125Z,9.80
2022-11-05T03:33:39.892Z,9.80
2022-11-05T03:33:51.912Z,9.80
2022-11-05T03:34:04.372Z,9.80
2022-11-05T03:34:16.863Z,9.80
2022-11-05T03:34:32.650Z,9.80
2022-11-05T03:34:50.127Z,9.80
2022-11-05T03:35:11.065Z,9.80
2022-11-05T03:35:24.315Z,9.80
2022-11-05T03:35:37.826Z,9.80
2022-11-05T03:35:53.962Z,9.80
2022-11-05T03:36:13.953Z,9.80
2022-11-05T03:36:28.567Z,9.80
2022-11-05T03:36:45.780Z,9.80
2022-11-05T03:36:57.537Z,9.80
2022-11-05T03:37:09.355Z,9.80
2022-11-05T03:37:22.053Z,9.80
2022-11-05T03:37:35.315Z,9.80
2022-11-05T03:37:47.433Z,9.80
2022-11-05T03:38:02.336Z,9.80
2022-11-05T03:38:17.211Z,9.80
2022-11-05T03:38:31.200Z,9.80
2022-11-05T03:38:44.264Z,9.80
2022-11-05T03:38:56.347Z,9.80
2022-11-05T03:39:11.699Z,9.80
2022-11-05T03:39:33.049Z,9.80
2022-11-05T03:39:47.202Z,9.80
2022-11-05T03:39:59.704Z,9.80
2022-11-05T03:40:12.148Z,9.80
2022-11-05T03:40:23.994Z,9.80
2022-11-05T03:40:36.145Z,9.80
2022-11-05T03:40:47.854Z,9.80
2022-11-05T03:41:01.318Z,9.80
2022-11-05T03:41:13.660Z,9.80
2022-11-05T03:41:25.744Z,9.80
2022-11-05T03:41:38.347Z,9.80
2022-11-05T03:41:51.326Z,9.80
2022-11-05T03:42:04.169Z,9.80
2022-11-05T03:42:16.745Z,9.80
2022-11-05T03:42:32.068Z,9.80
2022-11-05T03:42:45.215Z,9.80
2022-11-05T03:42:57.190Z,9.80
2022-11-05T03:43:09.418Z,9.80
2022-11-05T03:43:23.111Z,9.80
2022-11-05T03:43:36.603Z,9.80
2022-11-05T03:43:50.425Z,9.80
2022-11-05T03:44:04.132Z,9.80
2022-11-05T03:44:16.733Z,9.80
2022-11-05T03:44:29.983Z,9.80
2022-11-05T03:44:44.367Z,9.80
2022-11-05T03:44:58.046Z,9.80
2022-11-05T03:45:14.275Z,9.80
2022-11-05T03:45:29.120Z,9.80
2022-11-05T03:45:43.580Z,9.80
2022-11-05T03:46:01.095Z,9.80
2022-11-05T03:46:17.603Z,9.80
2022-11-05T03:46:32.103Z,9.80
2022-11-05T03:46:45.454Z,9.80
2022-11-05T03:47:19.098Z,9.80
2022-11-05T03:47:35.778Z,9.80
2022-11-05T03:47:47.824Z,9.80
2022-11-05T03:48:00.305Z,9.80
2022-11-05T03:48:12.115Z,9.80
2022-11-05T03:48:28.622Z,9.80
2022-11-05T03:48:43.358Z,9.80
2022-11-05T03:48:55.660Z,9.80
2022-11-05T03:49:08.513Z,9.80
2022-11-05T03:49:24.168Z,9.80
2022-11-05T03:49:40.719Z,9.80
2022-11-05T03:50:02.718Z,9.80
2022-11-05T03:50:17.868Z,9.80
2022-11-05T03:51:06.980Z,9.80
2022-11-05T03:51:27.303Z,9.80
2022-11-05T03:51:46.595Z,9.80
2022-11-05T03:52:12.261Z,9.80
2022-11-05T03:52:25.977Z,9.80
2022-11-05T03:52:40.459Z,9.80
2022-11-05T03:52:59.518Z,9.90
2022-11-05T03:53:18.508Z,9.80
2022-11-05T03:53:32.170Z,9.80
2022-11-05T03:53:47.250Z,9.80
2022-11-05T03:54:00.069Z,9.80
2022-11-05T03:54:11.865Z,9.80
2022-11-05T03:54:23.579Z,9.80
2022-11-05T03:54:35.311Z,9.80
2022-11-05T03:54:47.031Z,9.80
2022-11-05T03:54:58.741Z,9.80
2022-11-05T03:55:10.441Z,9.80
2022-11-05T03:55:24.205Z,9.80
2022-11-05T03:55:38.634Z,9.80
2022-11-05T03:56:05.811Z,9.80
2022-11-05T03:56:18.775Z,9.80
2022-11-05T03:56:37.764Z,9.80
2022-11-05T03:57:15.324Z,9.80
2022-11-05T03:57:32.654Z,9.80
2022-11-05T03:57:45.767Z,9.80
2022-11-05T03:57:57.440Z,9.80
2022-11-05T03:58:09.071Z,9.80
2022-11-05T03:58:21.557Z,9.80
2022-11-05T03:58:33.371Z,9.80
2022-11-05T03:58:45.132Z,9.80
2022-11-05T03:58:59.148Z,9.80
2022-11-05T03:59:11.167Z,9.80
2022-11-05T03:59:22.866Z,9.80
2022-11-05T03:59:39.870Z,9.80
2022-11-05T03:59:51.659Z,9.80
2022-11-05T04:00:06.442Z,9.80
2022-11-05T04:00:18.275Z,9.80
2022-11-05T04:00:29.957Z,9.80
2022-11-05T04:00:41.633Z,9.80
2022-11-05T04:00:53.341Z,9.80
2022-11-05T04:01:05.013Z,9.80
2022-11-05T04:01:16.766Z,9.90
2022-11-05T04:01:28.679Z,9.80
2022-11-05T04:01:41.495Z,9.90
2022-11-05T04:01:53.657Z,9.90
2022-11-05T04:02:05.581Z,9.90
2022-11-05T04:02:19.323Z,9.90
2022-11-05T04:02:31.656Z,9.90
2022-11-05T04:02:43.538Z,9.90
2022-11-05T04:02:55.622Z,9.90
2022-11-05T04:03:07.332Z,9.90
2022-11-05T04:03:19.056Z,9.90
2022-11-05T04:03:36.457Z,9.90
2022-11-05T04:03:48.339Z,9.90
2022-11-05T04:04:00.002Z,9.90
2022-11-05T04:04:11.739Z,9.90
2022-11-05T04:04:23.455Z,9.90
2022-11-05T04:04:35.193Z,9.90
2022-11-05T04:04:46.978Z,9.90
2022-11-05T04:04:58.675Z,9.90
2022-11-05T04:05:10.438Z,9.90
2022-11-05T04:05:22.223Z,9.90
2022-11-05T04:05:33.923Z,9.90
2022-11-05T04:06:05.777Z,9.90
2022-11-05T04:06:36.039Z,9.90
2022-11-05T04:07:06.361Z,9.90
2022-11-05T04:07:36.771Z,9.90
2022-11-05T04:08:11.480Z,9.90
2022-11-05T04:08:44.407Z,9.90
2022-11-05T04:09:14.813Z,9.90
2022-11-05T04:09:48.131Z,9.90
2022-11-05T04:10:18.192Z,9.90
2022-11-05T04:10:48.442Z,9.90
2022-11-05T04:11:18.743Z,9.90
2022-11-05T04:11:48.935Z,9.90
2022-11-05T04:12:19.152Z,9.90
2022-11-05T04:12:49.509Z,9.90
2022-11-05T04:13:19.898Z,9.90
2022-11-05T04:13:31.905Z,9.90
2022-11-05T04:13:43.586Z,9.90
2022-11-05T04:13:55.288Z,9.90
2022-11-05T04:14:06.963Z,9.90
2022-11-05T04:14:18.667Z,9.90
2022-11-05T04:14:30.800Z,9.90
2022-11-05T04:14:42.523Z,9.90
2022-11-05T04:14:54.293Z,9.90
2022-11-05T04:15:06.548Z,9.90
2022-11-05T04:15:18.304Z,9.90
2022-11-05T04:15:30.972Z,9.90
2022-11-05T04:16:01.004Z,9.90
2022-11-05T04:16:31.168Z,9.90
2022-11-05T04:17:01.359Z,10.00
2022-11-05T04:17:13.092Z,10.00
2022-11-05T04:17:24.763Z,9.90
2022-11-05T04:17:36.424Z,10.00
2022-11-05T04:17:48.072Z,10.00
2022-11-05T04:17:59.728Z,10.00
2022-11-05T04:18:11.396Z,10.00
2022-11-05T04:18:23.083Z,10.00
2022-11-05T04:18:36.020Z,10.00
2022-11-05T04:18:47.674Z,10.00
2022-11-05T04:18:59.340Z,10.00
2022-11-05T04:19:11.031Z,10.00
2022-11-05T04:19:41.971Z,10.00
2022-11-05T04:20:12.441Z,10.00
2022-11-05T04:20:47.008Z,10.00
2022-11-05T04:21:17.425Z,10.00
2022-11-05T04:21:47.541Z,10.00
2022-11-05T04:22:18.179Z,10.00
2022-11-05T04:22:52.083Z,10.00
2022-11-05T04:23:24.126Z,10.00
2022-11-05T04:23:54.705Z,10.00
2022-11-05T04:24:09.355Z,10.00